KSFF

Felts Field Airport

Spokane, Washington, USA
METAR KSFF 181253Z 10006KT 7SM -RA FEW016 BKN023 OVC029 06/03 A2974 RMK AO2 PRESFR SLP079 P0009 T00610033
Observed Flight Rules
Dec-18 @ 12:53 UTC (an hour ago) Marginal Visual Flight Rules
Wind Visibility Clouds Conditions
100° at 6 knots 7 miles
  • Few at 1,600' AGL
  • Broken at 2,300' AGL
  • Overcast at 2,900' AGL
  • Light Rain
Temperatures Readings Precipitation
Current 6°C / 43°F
Dewpoint 3°C / 37°F
Humidity 81%
Altimeter 29.74" Hg
Pressure 1007.9 hPa
Elevation 609
Current Rain 0.09
METAR KSFF 181253Z 10006KT 7SM -RA FEW016 BKN023 OVC029 06/03 A2974 RMK AO2 PRESFR SLP079 P0009 T00610033
Observed Flight Rules
Dec-18 @ 12:53 UTC
(an hour ago)
MVFR
Wind Visibility
100° at 6 knots 7 miles
Clouds
  • Few at 1,600' AGL
  • Broken at 2,300' AGL
  • Overcast at 2,900' AGL
Conditions
  • Light Rain
Temperature Dewpoint
6°C / 43°F 3°C / 37°F
Humidity Altimeter Pressure
81% 29.74" Hg 1007.9 hPa
Current Rain
0.09